Time,TemperatureF,DewpointF,PressureIn,WindDirection,WindDirectionDegrees,WindSpeedMPH,WindSpeedGustMPH,Humidity,HourlyPrecipIn,Conditions,Clouds,dailyrainin,SoftwareType,DateUTC
2013-01-15 00:04:00,39.2,7.2,29.82,SSW,202,2.0,2.0,26,0.00,,CLR,0.00,VWS V14.01,2013-01-15 08:04:00,
2013-01-15 00:09:00,39.0,7.1,29.82,SSW,202,2.0,2.0,26,0.00,,CLR,0.00,VWS V14.01,2013-01-15 08:09:00,
2013-01-15 00:14:00,38.7,6.7,29.82,SSW,202,2.0,2.0,26,0.00,,CLR,0.00,VWS V14.01,2013-01-15 08:14:00,
2013-01-15 00:19:00,38.8,6.9,29.82,SSW,202,2.0,2.0,26,0.00,,CLR,0.00,VWS V14.01,2013-01-15 08:19:00,
2013-01-15 00:24:00,38.5,6.6,29.82,SSW,202,2.0,2.0,26,0.00,,CLR,0.00,VWS V14.01,2013-01-15 08:24:00,
2013-01-15 00:29:00,38.7,6.7,29.82,SSW,202,2.0,2.0,26,0.00,,CLR,0.00,VWS V14.01,2013-01-15 08:29:00,
2013-01-15 00:34:00,39.4,7.4,29.82,SSW,202,2.0,2.0,26,0.00,,CLR,0.00,VWS V14.01,2013-01-15 08:34:00,
2013-01-15 00:39:00,39.4,9.0,29.82,SSW,202,2.0,2.0,28,0.00,,CLR,0.00,VWS V14.01,2013-01-15 08:39:00,
2013-01-15 00:44:00,38.7,6.7,29.82,SSW,202,2.0,2.0,26,0.00,,CLR,0.00,VWS V14.01,2013-01-15 08:44:00,
2013-01-15 00:49:00,38.8,6.9,29.82,SSW,202,2.0,2.0,26,0.00,,CLR,0.00,VWS V14.01,2013-01-15 08:49:00,
2013-01-15 00:54:00,38.8,6.9,29.82,SSW,202,2.0,2.0,26,0.00,,CLR,0.00,VWS V14.01,2013-01-15 08:54:00,
2013-01-15 00:59:00,38.7,9.2,29.82,SSW,202,2.0,2.0,29,0.00,,CLR,0.00,VWS V14.01,2013-01-15 08:59:00,
2013-01-15 01:04:00,38.5,9.0,29.85,SSW,202,2.0,2.0,29,0.00,,CLR,0.00,VWS V14.01,2013-01-15 09:04:00,
2013-01-15 01:09:00,38.1,8.7,29.85,SSW,202,2.0,2.0,29,0.00,,CLR,0.00,VWS V14.01,2013-01-15 09:09:00,
2013-01-15 01:14:00,37.9,8.5,29.85,SSW,202,2.0,2.0,29,0.00,,CLR,0.00,VWS V14.01,2013-01-15 09:14:00,
2013-01-15 01:19:00,38.1,8.7,29.85,SSW,202,2.0,2.0,29,0.00,,CLR,0.00,VWS V14.01,2013-01-15 09:19:00,
2013-01-15 01:24:00,38.1,8.7,29.85,SSW,202,2.0,2.0,29,0.00,,CLR,0.00,VWS V14.01,2013-01-15 09:24:00,
2013-01-15 01:29:00,37.9,8.5,29.85,SSW,202,2.0,2.0,29,0.00,,CLR,0.00,VWS V14.01,2013-01-15 09:29:00,
2013-01-15 01:34:00,37.2,7.9,29.88,SSW,202,2.0,2.0,29,0.00,,CLR,0.00,VWS V14.01,2013-01-15 09:34:00,
2013-01-15 01:39:00,36.7,8.2,29.88,SSW,202,2.0,2.0,30,0.00,,CLR,0.00,VWS V14.01,2013-01-15 09:39:00,
2013-01-15 01:44:00,36.7,8.2,29.82,SSW,202,2.0,2.0,30,0.00,,CLR,0.00,VWS V14.01,2013-01-15 09:44:00,
2013-01-15 01:49:00,36.7,8.2,29.82,SSW,202,2.0,2.0,30,0.00,,CLR,0.00,VWS V14.01,2013-01-15 09:49:00,
2013-01-15 01:54:00,36.7,8.2,29.82,SSW,202,2.0,2.0,30,0.00,,CLR,0.00,VWS V14.01,2013-01-15 09:54:00,
2013-01-15 01:59:00,36.3,7.9,29.82,SSW,202,2.0,2.0,30,0.00,,CLR,0.00,VWS V14.01,2013-01-15 09:59:00,
2013-01-15 02:04:00,36.3,7.9,29.85,SSW,202,2.0,2.0,30,0.00,,CLR,0.00,VWS V14.01,2013-01-15 10:04:00,
2013-01-15 02:10:00,36.3,7.9,29.85,SSW,202,2.0,2.0,30,0.00,,CLR,0.00,VWS V14.01,2013-01-15 10:10:00,
2013-01-15 02:15:00,36.5,8.0,29.85,SSW,202,2.0,2.0,30,0.00,,CLR,0.00,VWS V14.01,2013-01-15 10:15:00,
2013-01-15 02:20:00,36.3,7.9,29.85,SSW,202,2.0,2.0,30,0.00,,CLR,0.00,VWS V14.01,2013-01-15 10:20:00,
2013-01-15 02:25:00,36.3,7.9,29.85,SSW,202,2.0,2.0,30,0.00,,CLR,0.00,VWS V14.01,2013-01-15 10:25:00,
2013-01-15 02:30:00,36.5,8.0,29.85,SSW,202,2.0,2.0,30,0.00,,CLR,0.00,VWS V14.01,2013-01-15 10:30:00,
2013-01-15 02:35:00,36.7,8.2,29.85,SSW,202,2.0,2.0,30,0.00,,CLR,0.00,VWS V14.01,2013-01-15 10:35:00,
2013-01-15 02:40:00,36.9,8.3,29.85,SSW,202,2.0,2.0,30,0.00,,CLR,0.00,VWS V14.01,2013-01-15 10:40:00,
2013-01-15 02:45:00,36.7,8.2,29.85,SSW,202,2.0,2.0,30,0.00,,CLR,0.00,VWS V14.01,2013-01-15 10:45:00,
2013-01-15 02:50:00,36.5,8.0,29.85,SSW,202,2.0,2.0,30,0.00,,CLR,0.00,VWS V14.01,2013-01-15 10:50:00,
2013-01-15 02:55:00,36.9,8.3,29.85,SSW,202,2.0,2.0,30,0.00,,CLR,0.00,VWS V14.01,2013-01-15 10:55:00,
2013-01-15 03:02:00,36.7,8.2,29.85,SSW,202,2.0,2.0,30,0.00,,CLR,0.00,VWS V14.01,2013-01-15 11:02:00,
2013-01-15 03:07:00,36.5,8.0,29.85,SSW,202,2.0,2.0,30,0.00,,CLR,0.00,VWS V14.01,2013-01-15 11:07:00,
2013-01-15 03:12:00,36.7,8.2,29.85,SSW,202,2.0,2.0,30,0.00,,CLR,0.00,VWS V14.01,2013-01-15 11:12:00,
2013-01-15 03:17:00,37.4,8.1,29.85,SSW,202,2.0,2.0,29,0.00,,CLR,0.00,VWS V14.01,2013-01-15 11:17:00,
2013-01-15 03:22:00,37.2,8.6,29.85,SSW,202,2.0,2.0,30,0.00,,CLR,0.00,VWS V14.01,2013-01-15 11:22:00,
2013-01-15 03:27:00,36.3,7.9,29.85,SSW,202,2.0,2.0,30,0.00,,CLR,0.00,VWS V14.01,2013-01-15 11:27:00,
2013-01-15 03:32:00,35.8,7.4,29.85,SSW,202,2.0,2.0,30,0.00,,CLR,0.00,VWS V14.01,2013-01-15 11:32:00,
2013-01-15 03:37:00,35.2,7.7,29.85,SSW,202,2.0,2.0,31,0.00,,CLR,0.00,VWS V14.01,2013-01-15 11:37:00,
2013-01-15 03:42:00,35.1,6.8,29.85,SSW,202,2.0,2.0,30,0.00,,CLR,0.00,VWS V14.01,2013-01-15 11:42:00,
2013-01-15 03:47:00,35.4,7.1,29.85,SSW,202,2.0,2.0,30,0.00,,CLR,0.00,VWS V14.01,2013-01-15 11:47:00,
2013-01-15 03:52:00,35.6,7.2,29.85,SSW,202,2.0,2.0,30,0.00,,CLR,0.00,VWS V14.01,2013-01-15 11:52:00,
2013-01-15 03:58:00,35.4,7.8,29.85,SSW,202,2.0,2.0,31,0.00,,CLR,0.00,VWS V14.01,2013-01-15 11:58:00,
2013-01-15 04:03:00,35.4,7.8,29.85,SSW,202,2.0,2.0,31,0.00,,CLR,0.00,VWS V14.01,2013-01-15 12:03:00,
2013-01-15 04:08:00,35.2,7.7,29.85,SSW,202,2.0,2.0,31,0.00,,CLR,0.00,VWS V14.01,2013-01-15 12:08:00,
2013-01-15 04:13:00,35.4,7.8,29.85,SSW,202,2.0,2.0,31,0.00,,CLR,0.00,VWS V14.01,2013-01-15 12:13:00,
2013-01-15 04:18:00,35.2,8.4,29.82,SSW,202,2.0,2.0,32,0.00,,CLR,0.00,VWS V14.01,2013-01-15 12:18:00,
2013-01-15 04:23:00,35.4,8.5,29.82,SSW,202,2.0,2.0,32,0.00,,CLR,0.00,VWS V14.01,2013-01-15 12:23:00,
2013-01-15 04:28:00,35.8,8.1,29.82,SSW,202,2.0,2.0,31,0.00,,CLR,0.00,VWS V14.01,2013-01-15 12:28:00,
2013-01-15 04:33:00,36.1,8.4,29.85,SSW,202,2.0,2.0,31,0.00,,CLR,0.00,VWS V14.01,2013-01-15 12:33:00,
2013-01-15 04:38:00,35.8,8.1,29.85,SSW,202,2.0,2.0,31,0.00,,CLR,0.00,VWS V14.01,2013-01-15 12:38:00,
2013-01-15 04:43:00,35.8,8.1,29.85,SSW,202,2.0,2.0,31,0.00,,CLR,0.00,VWS V14.01,2013-01-15 12:43:00,
2013-01-15 04:48:00,36.3,8.6,29.85,SSW,202,2.0,2.0,31,0.00,,CLR,0.00,VWS V14.01,2013-01-15 12:48:00,
2013-01-15 04:53:00,36.1,8.4,29.85,SSW,202,2.0,2.0,31,0.00,,CLR,0.00,VWS V14.01,2013-01-15 12:53:00,
2013-01-15 04:58:00,35.8,8.1,29.85,SSW,202,2.0,2.0,31,0.00,,CLR,0.00,VWS V14.01,2013-01-15 12:58:00,
2013-01-15 05:03:00,35.4,7.8,29.85,SSW,202,2.0,2.0,31,0.00,,CLR,0.00,VWS V14.01,2013-01-15 13:03:00,
2013-01-15 05:08:00,35.2,7.7,29.85,SSW,202,2.0,2.0,31,0.00,,CLR,0.00,VWS V14.01,2013-01-15 13:08:00,
2013-01-15 05:13:00,35.2,7.7,29.85,SSW,202,2.0,2.0,31,0.00,,CLR,0.00,VWS V14.01,2013-01-15 13:13:00,
2013-01-15 05:18:00,34.7,7.9,29.85,SSW,202,2.0,2.0,32,0.00,,CLR,0.00,VWS V14.01,2013-01-15 13:18:00,
2013-01-15 05:23:00,34.3,7.6,29.85,SSW,202,2.0,2.0,32,0.00,,CLR,0.00,VWS V14.01,2013-01-15 13:23:00,
2013-01-15 05:28:00,34.3,7.6,29.85,SSW,202,2.0,2.0,32,0.00,,CLR,0.00,VWS V14.01,2013-01-15 13:28:00,
2013-01-15 05:33:00,34.5,8.4,29.88,SSW,202,2.0,2.0,33,0.00,,CLR,0.00,VWS V14.01,2013-01-15 13:33:00,
2013-01-15 05:38:00,34.5,8.4,29.88,SSW,202,2.0,2.0,33,0.00,,CLR,0.00,VWS V14.01,2013-01-15 13:38:00,
2013-01-15 05:43:00,35.1,8.9,29.88,SSW,202,2.0,2.0,33,0.00,,CLR,0.00,VWS V14.01,2013-01-15 13:43:00,
2013-01-15 05:48:00,35.1,8.9,29.85,SSW,202,2.0,2.0,33,0.00,,CLR,0.00,VWS V14.01,2013-01-15 13:48:00,
2013-01-15 05:53:00,35.4,9.2,29.85,SSW,202,2.0,2.0,33,0.00,,CLR,0.00,VWS V14.01,2013-01-15 13:53:00,
2013-01-15 05:58:00,35.4,9.2,29.85,SSW,202,2.0,2.0,33,0.00,,CLR,0.00,VWS V14.01,2013-01-15 13:58:00,
2013-01-15 06:03:00,35.4,9.2,29.88,SSW,202,2.0,2.0,33,0.00,,CLR,0.00,VWS V14.01,2013-01-15 14:03:00,
2013-01-15 06:08:00,35.6,8.7,29.88,SSW,202,2.0,2.0,32,0.00,,CLR,0.00,VWS V14.01,2013-01-15 14:08:00,
2013-01-15 06:14:00,35.6,8.7,29.88,SSW,202,2.0,2.0,32,0.00,,CLR,0.00,VWS V14.01,2013-01-15 14:14:00,
2013-01-15 06:19:00,35.6,8.7,29.88,SSW,202,2.0,2.0,32,0.00,,CLR,0.00,VWS V14.01,2013-01-15 14:19:00,
2013-01-15 06:24:00,35.1,8.9,29.88,SSW,202,2.0,2.0,33,0.00,,CLR,0.00,VWS V14.01,2013-01-15 14:24:00,
2013-01-15 06:29:00,34.9,8.0,29.88,SSW,202,2.0,2.0,32,0.00,,CLR,0.00,VWS V14.01,2013-01-15 14:29:00,
2013-01-15 06:34:00,35.1,8.2,29.88,SSW,202,2.0,2.0,32,0.00,,CLR,0.00,VWS V14.01,2013-01-15 14:34:00,
2013-01-15 06:39:00,34.7,7.9,29.88,SSW,202,2.0,2.0,32,0.00,,CLR,0.00,VWS V14.01,2013-01-15 14:39:00,
2013-01-15 06:44:00,34.9,8.0,29.88,SSW,202,2.0,2.0,32,0.00,,CLR,0.00,VWS V14.01,2013-01-15 14:44:00,
2013-01-15 06:50:00,35.4,8.5,29.91,SSW,202,2.0,2.0,32,0.00,,CLR,0.00,VWS V14.01,2013-01-15 14:50:00,
2013-01-15 06:55:00,35.4,8.5,29.91,SSW,202,2.0,2.0,32,0.00,,CLR,0.00,VWS V14.01,2013-01-15 14:55:00,
2013-01-15 07:00:00,35.4,9.2,29.91,SSW,202,2.0,2.0,33,0.00,,CLR,0.00,VWS V14.01,2013-01-15 15:00:00,
2013-01-15 07:05:00,35.8,8.8,29.91,SSW,202,2.0,2.0,32,0.00,,FEW250,0.00,VWS V14.01,2013-01-15 15:05:00,
2013-01-15 07:10:00,35.8,8.8,29.91,SSW,202,2.0,2.0,32,0.00,,FEW250,0.00,VWS V14.01,2013-01-15 15:10:00,
2013-01-15 07:15:00,35.2,9.0,29.91,SSW,202,2.0,2.0,33,0.00,,FEW250,0.00,VWS V14.01,2013-01-15 15:15:00,
2013-01-15 07:20:00,35.1,8.9,29.91,SSW,202,2.0,2.0,33,0.00,,FEW250,0.00,VWS V14.01,2013-01-15 15:20:00,
2013-01-15 07:25:00,34.9,8.7,29.91,SSW,202,2.0,2.0,33,0.00,,FEW250,0.00,VWS V14.01,2013-01-15 15:25:00,
2013-01-15 07:30:00,35.6,8.7,29.91,SSW,202,2.0,2.0,32,0.00,,FEW250,0.00,VWS V14.01,2013-01-15 15:30:00,
2013-01-15 07:35:00,35.8,8.8,29.91,SSW,202,2.0,2.0,32,0.00,,FEW250,0.00,VWS V14.01,2013-01-15 15:35:00,
2013-01-15 07:40:00,36.1,9.1,29.91,SSW,202,2.0,2.0,32,0.00,,FEW250,0.00,VWS V14.01,2013-01-15 15:40:00,
2013-01-15 07:45:00,36.3,9.3,29.91,SSW,202,2.0,2.0,32,0.00,,FEW250,0.00,VWS V14.01,2013-01-15 15:45:00,
2013-01-15 07:50:00,36.9,9.8,29.91,SSW,202,2.0,2.0,32,0.00,,FEW250,0.00,VWS V14.01,2013-01-15 15:50:00,
2013-01-15 07:55:00,37.6,10.4,29.91,SSW,202,2.0,2.0,32,0.00,,FEW250,0.00,VWS V14.01,2013-01-15 15:55:00,
2013-01-15 08:00:00,37.9,10.7,29.91,SSW,202,2.0,2.0,32,0.00,,FEW250,0.00,VWS V14.01,2013-01-15 16:00:00,
2013-01-15 08:05:00,38.1,10.9,29.91,SSW,202,2.0,2.0,32,0.00,,FEW250,0.00,VWS V14.01,2013-01-15 16:05:00,
2013-01-15 08:10:00,38.7,11.4,29.91,SSW,202,2.0,2.0,32,0.00,,FEW250,0.00,VWS V14.01,2013-01-15 16:10:00,
2013-01-15 08:15:00,39.2,11.1,29.88,SSW,202,2.0,2.0,31,0.00,,FEW250,0.00,VWS V14.01,2013-01-15 16:15:00,
2013-01-15 08:20:00,39.7,12.3,29.88,SSW,202,2.0,2.0,32,0.00,,FEW250,0.00,VWS V14.01,2013-01-15 16:20:00,
2013-01-15 08:25:00,40.3,12.1,29.88,SSW,202,2.0,2.0,31,0.00,,FEW250,0.00,VWS V14.01,2013-01-15 16:25:00,
2013-01-15 08:30:00,40.8,12.5,29.88,SSW,202,2.0,2.0,31,0.00,,FEW250,0.00,VWS V14.01,2013-01-15 16:30:00,
2013-01-15 08:35:00,46.0,17.1,29.91,SSW,202,2.0,2.0,31,0.00,,FEW250,0.00,VWS V14.01,2013-01-15 16:35:00,
2013-01-15 08:40:00,47.7,17.8,29.91,SSW,202,2.0,2.0,30,0.00,,FEW250,0.00,VWS V14.01,2013-01-15 16:40:00,
2013-01-15 08:45:00,49.1,19.0,29.91,SSW,202,2.0,2.0,30,0.00,,FEW250,0.00,VWS V14.01,2013-01-15 16:45:00,
2013-01-15 08:50:00,50.2,19.2,29.91,SSW,202,2.0,2.0,29,0.00,,FEW250,0.00,VWS V14.01,2013-01-15 16:50:00,
2013-01-15 08:55:00,50.7,18.8,29.91,SSW,202,2.0,2.0,28,0.00,,FEW250,0.00,VWS V14.01,2013-01-15 16:55:00,
2013-01-15 09:00:00,51.6,20.4,29.94,SSW,202,2.0,2.0,29,0.00,,FEW250,0.00,VWS V14.01,2013-01-15 17:00:00,
2013-01-15 09:05:00,52.7,20.5,29.94,SSW,202,2.0,2.0,28,0.00,,FEW250,0.00,VWS V14.01,2013-01-15 17:05:00,
2013-01-15 09:12:00,53.2,21.0,29.94,SSW,202,2.0,2.0,28,0.00,,FEW250,0.00,VWS V14.01,2013-01-15 17:12:00,
2013-01-15 09:17:00,53.8,20.6,29.94,SSW,202,2.0,2.0,27,0.00,,FEW250,0.00,VWS V14.01,2013-01-15 17:17:00,
2013-01-15 09:22:00,55.2,21.8,29.94,SSW,202,2.0,2.0,27,0.00,,FEW250,0.00,VWS V14.01,2013-01-15 17:22:00,
2013-01-15 09:27:00,54.9,21.5,29.94,SSW,202,2.0,2.0,27,0.00,,FEW250,0.00,VWS V14.01,2013-01-15 17:27:00,
2013-01-15 09:32:00,55.2,21.8,29.94,SSW,202,2.0,2.0,27,0.00,,FEW250,0.00,VWS V14.01,2013-01-15 17:32:00,
2013-01-15 09:37:00,55.9,22.5,29.94,SSE,158,0.0,0.0,27,0.00,,FEW250,0.00,VWS V14.01,2013-01-15 17:37:00,
2013-01-15 09:42:00,56.7,23.1,29.94,SSE,158,0.0,0.0,27,0.00,,FEW250,0.00,VWS V14.01,2013-01-15 17:42:00,
2013-01-15 09:47:00,57.2,22.6,29.94,SSE,158,0.0,0.0,26,0.00,,FEW250,0.00,VWS V14.01,2013-01-15 17:47:00,
2013-01-15 09:52:00,56.8,22.3,29.94,SSE,158,0.0,0.0,26,0.00,,FEW250,0.00,VWS V14.01,2013-01-15 17:52:00,
2013-01-15 09:57:00,57.2,22.6,29.94,SSE,158,0.0,0.0,26,0.00,,FEW250,0.00,VWS V14.01,2013-01-15 17:57:00,
2013-01-15 10:02:00,58.3,23.6,29.94,SSE,158,0.0,0.0,26,0.00,,CLR,0.00,VWS V14.01,2013-01-15 18:02:00,
2013-01-15 10:07:00,58.5,23.7,29.94,SSE,158,0.0,0.0,26,0.00,,CLR,0.00,VWS V14.01,2013-01-15 18:07:00,
2013-01-15 10:12:00,58.5,23.7,29.94,SSE,158,0.0,0.0,26,0.00,,CLR,0.00,VWS V14.01,2013-01-15 18:12:00,
2013-01-15 10:18:00,58.8,23.1,29.91,SSE,158,0.0,0.0,25,0.00,,CLR,0.00,VWS V14.01,2013-01-15 18:18:00,
2013-01-15 10:23:00,59.2,23.4,29.91,SSE,158,0.0,0.0,25,0.00,,CLR,0.00,VWS V14.01,2013-01-15 18:23:00,
2013-01-15 10:28:00,60.1,24.2,29.91,SSE,158,0.0,0.0,25,0.00,,CLR,0.00,VWS V14.01,2013-01-15 18:28:00,
2013-01-15 10:33:00,60.1,24.2,29.91,SSE,158,0.0,0.0,25,0.00,,CLR,0.00,VWS V14.01,2013-01-15 18:33:00,
2013-01-15 10:38:00,59.9,24.0,29.91,SSE,158,0.0,0.0,25,0.00,,CLR,0.00,VWS V14.01,2013-01-15 18:38:00,
2013-01-15 10:43:00,60.8,23.8,29.91,SW,225,2.5,2.5,24,0.00,,CLR,0.00,VWS V14.01,2013-01-15 18:43:00,
2013-01-15 10:48:00,60.8,23.8,29.91,SW,225,2.5,2.5,24,0.00,,CLR,0.00,VWS V14.01,2013-01-15 18:48:00,
2013-01-15 10:53:00,61.5,24.4,29.91,SW,225,2.5,2.5,24,0.00,,CLR,0.00,VWS V14.01,2013-01-15 18:53:00,
2013-01-15 10:58:00,62.1,24.9,29.91,WSW,248,2.0,2.0,24,0.00,,CLR,0.00,VWS V14.01,2013-01-15 18:58:00,
2013-01-15 11:03:00,62.1,24.9,29.91,WSW,248,2.0,2.0,24,0.00,,FEW250,0.00,VWS V14.01,2013-01-15 19:03:00,
2013-01-15 11:08:00,61.9,25.7,29.91,WSW,248,2.0,2.0,25,0.00,,FEW250,0.00,VWS V14.01,2013-01-15 19:08:00,
2013-01-15 11:13:00,61.5,25.4,29.91,SSW,202,1.1,1.1,25,0.00,,FEW250,0.00,VWS V14.01,2013-01-15 19:13:00,
2013-01-15 11:18:00,61.7,25.5,29.88,SSW,202,1.1,1.1,25,0.00,,FEW250,0.00,VWS V14.01,2013-01-15 19:18:00,
2013-01-15 11:23:00,61.5,25.4,29.88,SSW,202,1.1,1.1,25,0.00,,FEW250,0.00,VWS V14.01,2013-01-15 19:23:00,
2013-01-15 11:28:00,61.7,25.5,29.88,SSW,202,3.8,3.8,25,0.00,,FEW250,0.00,VWS V14.01,2013-01-15 19:28:00,
2013-01-15 11:33:00,61.9,25.7,29.85,SSW,202,1.1,1.1,25,0.00,,FEW250,0.00,VWS V14.01,2013-01-15 19:33:00,
2013-01-15 11:38:00,61.3,25.2,29.85,SW,225,2.0,2.0,25,0.00,,FEW250,0.00,VWS V14.01,2013-01-15 19:38:00,
2013-01-15 11:43:00,62.1,25.9,29.85,SW,225,2.0,2.0,25,0.00,,FEW250,0.00,VWS V14.01,2013-01-15 19:43:00,
2013-01-15 11:48:00,61.5,25.4,29.85,SSW,202,1.1,1.1,25,0.00,,FEW250,0.00,VWS V14.01,2013-01-15 19:48:00,
2013-01-15 11:54:00,62.1,25.9,29.85,WSW,248,1.6,1.6,25,0.00,,FEW250,0.00,VWS V14.01,2013-01-15 19:54:00,
2013-01-15 11:59:00,62.2,26.0,29.85,SSW,202,0.9,0.9,25,0.00,,FEW250,0.00,VWS V14.01,2013-01-15 19:59:00,
2013-01-15 12:04:00,62.1,25.9,29.85,SSW,202,0.9,0.9,25,0.00,,FEW250,0.00,VWS V14.01,2013-01-15 20:04:00,
2013-01-15 12:09:00,62.4,26.2,29.85,SSW,202,0.9,0.9,25,0.00,,FEW250,0.00,VWS V14.01,2013-01-15 20:09:00,
2013-01-15 12:14:00,63.3,26.9,29.85,SSW,202,2.7,2.7,25,0.00,,FEW250,0.00,VWS V14.01,2013-01-15 20:14:00,
2013-01-15 12:19:00,64.4,27.8,29.85,SSW,202,2.7,2.7,25,0.00,,FEW250,0.00,VWS V14.01,2013-01-15 20:19:00,
2013-01-15 12:24:00,64.4,26.9,29.85,SSW,202,2.7,2.7,24,0.00,,FEW250,0.00,VWS V14.01,2013-01-15 20:24:00,
2013-01-15 12:29:00,63.9,26.4,29.85,SSW,202,2.7,2.7,24,0.00,,FEW250,0.00,VWS V14.01,2013-01-15 20:29:00,
2013-01-15 12:34:00,63.9,27.4,29.85,SSW,202,2.7,2.7,25,0.00,,FEW250,0.00,VWS V14.01,2013-01-15 20:34:00,
2013-01-15 12:39:00,63.9,27.4,29.85,SSW,202,2.7,2.7,25,0.00,,FEW250,0.00,VWS V14.01,2013-01-15 20:39:00,
2013-01-15 12:45:00,64.2,27.7,29.82,SSW,202,2.7,2.7,25,0.00,,FEW250,0.00,VWS V14.01,2013-01-15 20:45:00,
2013-01-15 12:50:00,64.0,27.5,29.82,SSW,202,2.7,2.7,25,0.00,,FEW250,0.00,VWS V14.01,2013-01-15 20:50:00,
2013-01-15 12:55:00,63.5,27.1,29.82,SSW,202,2.7,2.7,25,0.00,,FEW250,0.00,VWS V14.01,2013-01-15 20:55:00,
2013-01-15 13:00:00,63.1,26.8,29.82,SSW,202,2.7,2.7,25,0.00,,FEW250,0.00,VWS V14.01,2013-01-15 21:00:00,
2013-01-15 13:05:00,62.6,25.3,29.82,SSW,202,2.7,2.7,24,0.00,,FEW250,0.00,VWS V14.01,2013-01-15 21:05:00,
2013-01-15 13:10:00,62.4,26.2,29.82,SSW,202,2.7,2.7,25,0.00,,FEW250,0.00,VWS V14.01,2013-01-15 21:10:00,
2013-01-15 13:15:00,62.2,26.0,29.82,SSW,202,2.7,2.7,25,0.00,,FEW250,0.00,VWS V14.01,2013-01-15 21:15:00,
2013-01-15 13:20:00,61.7,25.5,29.82,SSW,202,2.7,2.7,25,0.00,,FEW250,0.00,VWS V14.01,2013-01-15 21:20:00,
2013-01-15 13:25:00,61.5,25.4,29.82,SSW,202,2.7,2.7,25,0.00,,FEW250,0.00,VWS V14.01,2013-01-15 21:25:00,
2013-01-15 13:30:00,62.1,25.9,29.79,WSW,248,2.7,2.7,25,0.00,,FEW250,0.00,VWS V14.01,2013-01-15 21:30:00,
2013-01-15 13:35:00,62.2,26.0,29.79,WSW,248,2.7,2.7,25,0.00,,FEW250,0.00,VWS V14.01,2013-01-15 21:35:00,
2013-01-15 13:40:00,62.6,25.3,29.79,WSW,248,2.7,2.7,24,0.00,,FEW250,0.00,VWS V14.01,2013-01-15 21:40:00,
2013-01-15 13:45:00,63.5,26.1,29.82,WSW,248,2.7,2.7,24,0.00,,FEW250,0.00,VWS V14.01,2013-01-15 21:45:00,
2013-01-15 13:50:00,63.1,25.8,29.82,WNW,292,3.8,3.8,24,0.00,,FEW250,0.00,VWS V14.01,2013-01-15 21:50:00,
2013-01-15 13:55:00,62.2,26.0,29.82,West,270,3.6,3.6,25,0.00,,FEW250,0.00,VWS V14.01,2013-01-15 21:55:00,
2013-01-15 14:00:00,62.1,25.9,29.82,West,270,2.9,2.9,25,0.00,,FEW250,0.00,VWS V14.01,2013-01-15 22:00:00,
2013-01-15 14:05:00,61.9,25.7,29.82,SSE,158,2.9,2.9,25,0.00,,FEW250,0.00,VWS V14.01,2013-01-15 22:05:00,
2013-01-15 14:10:00,61.7,25.5,29.82,WNW,292,2.7,2.7,25,0.00,,FEW250,0.00,VWS V14.01,2013-01-15 22:10:00,
2013-01-15 14:15:00,60.8,24.8,29.82,WNW,292,1.3,1.3,25,0.00,,FEW250,0.00,VWS V14.01,2013-01-15 22:15:00,
2013-01-15 14:20:00,60.8,24.8,29.82,WNW,292,3.1,3.1,25,0.00,,FEW250,0.00,VWS V14.01,2013-01-15 22:20:00,
2013-01-15 14:25:00,60.6,25.6,29.82,South,180,4.0,4.0,26,0.00,,FEW250,0.00,VWS V14.01,2013-01-15 22:25:00,
2013-01-15 14:30:00,60.1,25.1,29.82,SSW,202,3.4,3.4,26,0.00,,FEW250,0.00,VWS V14.01,2013-01-15 22:30:00,
2013-01-15 14:35:00,59.9,25.9,29.82,WSW,248,2.7,2.7,27,0.00,,FEW250,0.00,VWS V14.01,2013-01-15 22:35:00,
2013-01-15 14:40:00,59.2,25.2,29.82,SSE,158,4.0,4.0,27,0.00,,FEW250,0.00,VWS V14.01,2013-01-15 22:40:00,
2013-01-15 14:45:00,59.0,25.1,29.82,SSE,158,4.0,4.0,27,0.00,,FEW250,0.00,VWS V14.01,2013-01-15 22:45:00,
2013-01-15 14:50:00,58.8,24.9,29.82,SSW,202,3.4,3.4,27,0.00,,FEW250,0.00,VWS V14.01,2013-01-15 22:50:00,
2013-01-15 14:55:00,59.2,25.2,29.82,SSW,202,3.4,3.4,27,0.00,,FEW250,0.00,VWS V14.01,2013-01-15 22:55:00,
2013-01-15 15:00:00,59.5,25.5,29.82,SSW,202,3.4,3.4,27,0.00,,FEW250,0.00,VWS V14.01,2013-01-15 23:00:00,
2013-01-15 15:05:00,59.2,24.3,29.82,SSW,202,3.4,3.4,26,0.00,,FEW250,0.00,VWS V14.01,2013-01-15 23:05:00,
2013-01-15 15:10:00,58.5,23.7,29.82,SSW,202,3.4,3.4,26,0.00,,FEW250,0.00,VWS V14.01,2013-01-15 23:10:00,
2013-01-15 15:15:00,58.6,23.9,29.82,SSW,202,3.4,3.4,26,0.00,,FEW250,0.00,VWS V14.01,2013-01-15 23:15:00,
2013-01-15 15:20:00,59.5,24.6,29.82,SSW,202,3.4,3.4,26,0.00,,FEW250,0.00,VWS V14.01,2013-01-15 23:20:00,
2013-01-15 15:25:00,59.4,24.5,29.82,SSW,202,3.4,3.4,26,0.00,,FEW250,0.00,VWS V14.01,2013-01-15 23:25:00,
2013-01-15 15:30:00,59.7,24.8,29.82,SSW,202,3.4,3.4,26,0.00,,FEW250,0.00,VWS V14.01,2013-01-15 23:30:00,
2013-01-15 15:35:00,59.4,24.5,29.82,SSW,202,3.4,3.4,26,0.00,,FEW250,0.00,VWS V14.01,2013-01-15 23:35:00,
2013-01-15 15:40:00,59.4,25.4,29.82,SSW,202,3.4,3.4,27,0.00,,FEW250,0.00,VWS V14.01,2013-01-15 23:40:00,
2013-01-15 15:45:00,59.2,24.3,29.82,SSW,202,3.4,3.4,26,0.00,,FEW250,0.00,VWS V14.01,2013-01-15 23:45:00,
2013-01-15 15:51:00,59.7,24.8,29.82,SSW,202,3.4,3.4,26,0.00,,FEW250,0.00,VWS V14.01,2013-01-15 23:51:00,
2013-01-15 15:56:00,59.9,25.0,29.82,SSW,202,3.4,3.4,26,0.00,,FEW250,0.00,VWS V14.01,2013-01-15 23:56:00,
2013-01-15 16:01:00,60.3,25.3,29.82,SSW,202,3.4,3.4,26,0.00,,FEW250,0.00,VWS V14.01,2013-01-16 00:01:00,
2013-01-15 16:06:00,60.6,25.6,29.82,SSW,202,3.4,3.4,26,0.00,,FEW250,0.00,VWS V14.01,2013-01-16 00:06:00,
2013-01-15 16:11:00,59.7,24.8,29.82,SSW,202,3.4,3.4,26,0.00,,FEW250,0.00,VWS V14.01,2013-01-16 00:11:00,
2013-01-15 16:16:00,59.5,24.6,29.82,SSW,202,3.4,3.4,26,0.00,,FEW250,0.00,VWS V14.01,2013-01-16 00:16:00,
2013-01-15 16:21:00,59.0,24.2,29.82,SSW,202,3.4,3.4,26,0.00,,FEW250,0.00,VWS V14.01,2013-01-16 00:21:00,
2013-01-15 16:26:00,58.8,24.0,29.82,SSW,202,3.4,3.4,26,0.00,,FEW250,0.00,VWS V14.01,2013-01-16 00:26:00,
2013-01-15 16:31:00,58.3,23.6,29.82,SSW,202,3.4,3.4,26,0.00,,FEW250,0.00,VWS V14.01,2013-01-16 00:31:00,
2013-01-15 16:36:00,57.6,23.9,29.82,SSW,202,3.4,3.4,27,0.00,,FEW250,0.00,VWS V14.01,2013-01-16 00:36:00,
2013-01-15 16:41:00,57.0,23.4,29.82,SSW,202,3.4,3.4,27,0.00,,FEW250,0.00,VWS V14.01,2013-01-16 00:41:00,
2013-01-15 16:46:00,55.4,22.9,29.82,SSW,202,3.4,3.4,28,0.00,,FEW250,0.00,VWS V14.01,2013-01-16 00:46:00,
2013-01-15 16:51:00,53.6,22.9,29.82,SSW,202,3.4,3.4,30,0.00,,FEW250,0.00,VWS V14.01,2013-01-16 00:51:00,
2013-01-15 16:56:00,52.7,22.9,29.82,SSW,202,3.4,3.4,31,0.00,,FEW250,0.00,VWS V14.01,2013-01-16 00:56:00,
2013-01-15 17:01:00,51.8,22.9,29.85,SSW,202,3.4,3.4,32,0.00,,FEW250,0.00,VWS V14.01,2013-01-16 01:01:00,
2013-01-15 17:06:00,51.1,23.7,29.85,SSW,202,3.4,3.4,34,0.00,,FEW250,0.00,VWS V14.01,2013-01-16 01:06:00,
2013-01-15 17:11:00,50.0,23.4,29.85,SSW,202,3.4,3.4,35,0.00,,FEW250,0.00,VWS V14.01,2013-01-16 01:11:00,
2013-01-15 17:16:00,49.5,23.0,29.82,SSW,202,3.4,3.4,35,0.00,,FEW250,0.00,VWS V14.01,2013-01-16 01:16:00,
2013-01-15 17:21:00,49.3,22.8,29.82,SSW,202,3.4,3.4,35,0.00,,FEW250,0.00,VWS V14.01,2013-01-16 01:21:00,
2013-01-15 17:26:00,49.1,22.6,29.82,SSW,202,3.4,3.4,35,0.00,,FEW250,0.00,VWS V14.01,2013-01-16 01:26:00,
2013-01-15 17:31:00,48.9,23.2,29.82,SSW,202,3.4,3.4,36,0.00,,FEW250,0.00,VWS V14.01,2013-01-16 01:31:00,
2013-01-15 17:36:00,48.9,23.8,29.82,SSW,202,3.4,3.4,37,0.00,,FEW250,0.00,VWS V14.01,2013-01-16 01:36:00,
2013-01-15 17:41:00,48.6,23.5,29.82,SSW,202,3.4,3.4,37,0.00,,FEW250,0.00,VWS V14.01,2013-01-16 01:41:00,
2013-01-15 17:46:00,48.2,23.2,29.82,SSW,202,3.4,3.4,37,0.00,,FEW250,0.00,VWS V14.01,2013-01-16 01:46:00,
2013-01-15 17:51:00,47.7,22.7,29.82,SSW,202,3.4,3.4,37,0.00,,FEW250,0.00,VWS V14.01,2013-01-16 01:51:00,
2013-01-15 17:56:00,47.3,22.4,29.82,SSW,202,3.4,3.4,37,0.00,,FEW250,0.00,VWS V14.01,2013-01-16 01:56:00,
2013-01-15 18:01:00,47.1,22.8,29.85,SSW,202,3.4,3.4,38,0.00,,FEW250,0.00,VWS V14.01,2013-01-16 02:01:00,
2013-01-15 18:06:00,47.1,22.8,29.85,SSW,202,3.4,3.4,38,0.00,,FEW250,0.00,VWS V14.01,2013-01-16 02:06:00,
2013-01-15 18:11:00,47.3,23.0,29.85,SSW,202,3.4,3.4,38,0.00,,FEW250,0.00,VWS V14.01,2013-01-16 02:11:00,
2013-01-15 18:16:00,46.9,22.7,29.85,SSW,202,3.4,3.4,38,0.00,,FEW250,0.00,VWS V14.01,2013-01-16 02:16:00,
2013-01-15 18:21:00,46.8,22.5,29.85,SSW,202,3.4,3.4,38,0.00,,FEW250,0.00,VWS V14.01,2013-01-16 02:21:00,
2013-01-15 18:26:00,46.9,22.7,29.85,SSW,202,3.4,3.4,38,0.00,,FEW250,0.00,VWS V14.01,2013-01-16 02:26:00,
2013-01-15 18:31:00,46.9,22.7,29.85,SSW,202,3.4,3.4,38,0.00,,FEW250,0.00,VWS V14.01,2013-01-16 02:31:00,
2013-01-15 18:36:00,46.8,22.5,29.85,SSW,202,3.4,3.4,38,0.00,,FEW250,0.00,VWS V14.01,2013-01-16 02:36:00,
2013-01-15 18:41:00,46.9,22.7,29.85,SSW,202,3.4,3.4,38,0.00,,FEW250,0.00,VWS V14.01,2013-01-16 02:41:00,
2013-01-15 18:46:00,47.1,22.8,29.85,SSW,202,3.4,3.4,38,0.00,,FEW250,0.00,VWS V14.01,2013-01-16 02:46:00,
2013-01-15 18:51:00,47.1,22.8,29.85,SSW,202,3.4,3.4,38,0.00,,FEW250,0.00,VWS V14.01,2013-01-16 02:51:00,
2013-01-15 18:56:00,47.1,22.8,29.85,SSW,202,3.4,3.4,38,0.00,,FEW250,0.00,VWS V14.01,2013-01-16 02:56:00,
2013-01-15 19:01:00,46.9,22.7,29.85,SSW,202,3.4,3.4,38,0.00,,FEW250,0.00,VWS V14.01,2013-01-16 03:01:00,
2013-01-15 19:06:00,46.4,22.2,29.85,SSW,202,3.4,3.4,38,0.00,,FEW250,0.00,VWS V14.01,2013-01-16 03:06:00,
2013-01-15 19:12:00,46.2,22.6,29.85,SSW,202,3.4,3.4,39,0.00,,FEW250,0.00,VWS V14.01,2013-01-16 03:12:00,
2013-01-15 19:17:00,45.9,22.3,29.85,SSW,202,3.4,3.4,39,0.00,,FEW250,0.00,VWS V14.01,2013-01-16 03:17:00,
2013-01-15 19:22:00,45.7,22.2,29.85,SSW,202,3.4,3.4,39,0.00,,FEW250,0.00,VWS V14.01,2013-01-16 03:22:00,
2013-01-15 19:27:00,45.9,22.9,29.85,SSW,202,3.4,3.4,40,0.00,,FEW250,0.00,VWS V14.01,2013-01-16 03:27:00,
2013-01-15 19:32:00,45.1,22.3,29.85,SSW,202,3.4,3.4,40,0.00,,FEW250,0.00,VWS V14.01,2013-01-16 03:32:00,
2013-01-15 19:37:00,45.0,22.1,29.85,SSW,202,3.4,3.4,40,0.00,,FEW250,0.00,VWS V14.01,2013-01-16 03:37:00,
2013-01-15 19:42:00,45.0,22.7,29.85,SSW,202,3.4,3.4,41,0.00,,FEW250,0.00,VWS V14.01,2013-01-16 03:42:00,
2013-01-15 19:47:00,44.8,22.5,29.85,SSW,202,3.4,3.4,41,0.00,,FEW250,0.00,VWS V14.01,2013-01-16 03:47:00,
2013-01-15 19:52:00,44.6,22.9,29.85,SSW,202,3.4,3.4,42,0.00,,FEW250,0.00,VWS V14.01,2013-01-16 03:52:00,
2013-01-15 19:57:00,44.8,23.1,29.85,SSW,202,3.4,3.4,42,0.00,,FEW250,0.00,VWS V14.01,2013-01-16 03:57:00,
2013-01-15 20:02:00,45.7,25.6,29.85,SSW,202,3.4,3.4,45,0.00,,CLR,0.00,VWS V14.01,2013-01-16 04:02:00,
2013-01-15 20:07:00,45.7,25.6,29.85,SSW,202,3.4,3.4,45,0.00,,CLR,0.00,VWS V14.01,2013-01-16 04:07:00,
2013-01-15 20:12:00,45.5,24.9,29.85,SSW,202,3.4,3.4,44,0.00,,CLR,0.00,VWS V14.01,2013-01-16 04:12:00,
2013-01-15 20:17:00,45.3,24.2,29.85,SSW,202,3.4,3.4,43,0.00,,CLR,0.00,VWS V14.01,2013-01-16 04:17:00,
2013-01-15 20:22:00,45.1,24.5,29.85,SSW,202,3.4,3.4,44,0.00,,CLR,0.00,VWS V14.01,2013-01-16 04:22:00,
2013-01-15 20:27:00,44.8,23.7,29.85,SSW,202,3.4,3.4,43,0.00,,CLR,0.00,VWS V14.01,2013-01-16 04:27:00,
2013-01-15 20:32:00,44.6,24.0,29.88,SSW,202,3.4,3.4,44,0.00,,CLR,0.00,VWS V14.01,2013-01-16 04:32:00,
2013-01-15 20:37:00,44.2,23.7,29.88,SSW,202,3.4,3.4,44,0.00,,CLR,0.00,VWS V14.01,2013-01-16 04:37:00,
2013-01-15 20:42:00,44.2,24.3,29.88,SSW,202,3.4,3.4,45,0.00,,CLR,0.00,VWS V14.01,2013-01-16 04:42:00,
2013-01-15 20:47:00,44.2,24.3,29.82,SSW,202,3.4,3.4,45,0.00,,CLR,0.00,VWS V14.01,2013-01-16 04:47:00,
2013-01-15 20:52:00,44.1,23.6,29.82,SSW,202,3.4,3.4,44,0.00,,CLR,0.00,VWS V14.01,2013-01-16 04:52:00,
2013-01-15 20:57:00,43.5,23.1,29.82,SSW,202,3.4,3.4,44,0.00,,CLR,0.00,VWS V14.01,2013-01-16 04:57:00,
2013-01-15 21:00:00,43.7,23.8,29.82,SSW,202,3.4,3.4,45,0.00,,CLR,0.00,VWS V14.01,2013-01-16 05:00:00,
2013-01-15 21:01:00,43.9,23.9,29.85,SSW,202,3.4,3.4,45,0.00,,CLR,0.00,VWS V14.01,2013-01-16 05:01:00,
2013-01-15 21:07:00,44.1,24.1,29.85,SSW,202,3.4,3.4,45,0.00,,CLR,0.00,VWS V14.01,2013-01-16 05:07:00,
2013-01-15 21:12:00,43.7,23.8,29.85,SSW,202,3.4,3.4,45,0.00,,CLR,0.00,VWS V14.01,2013-01-16 05:12:00,
2013-01-15 21:17:00,43.5,23.6,29.85,SSW,202,3.4,3.4,45,0.00,,CLR,0.00,VWS V14.01,2013-01-16 05:17:00,
2013-01-15 21:22:00,43.5,23.6,29.85,SSW,202,3.4,3.4,45,0.00,,CLR,0.00,VWS V14.01,2013-01-16 05:22:00,
2013-01-15 21:27:00,43.5,23.6,29.85,SSW,202,3.4,3.4,45,0.00,,CLR,0.00,VWS V14.01,2013-01-16 05:27:00,
2013-01-15 21:32:00,43.3,23.4,29.85,SSW,202,3.4,3.4,45,0.00,,CLR,0.00,VWS V14.01,2013-01-16 05:32:00,
2013-01-15 21:37:00,43.3,24.0,29.85,SSW,202,3.4,3.4,46,0.00,,CLR,0.00,VWS V14.01,2013-01-16 05:37:00,
2013-01-15 21:42:00,43.3,24.0,29.85,SSW,202,3.4,3.4,46,0.00,,CLR,0.00,VWS V14.01,2013-01-16 05:42:00,
2013-01-15 21:47:00,43.2,23.8,29.85,SSW,202,3.4,3.4,46,0.00,,CLR,0.00,VWS V14.01,2013-01-16 05:47:00,
2013-01-15 21:52:00,43.0,23.6,29.85,SSW,202,3.4,3.4,46,0.00,,CLR,0.00,VWS V14.01,2013-01-16 05:52:00,
2013-01-15 21:57:00,43.0,24.1,29.85,SSW,202,3.4,3.4,47,0.00,,CLR,0.00,VWS V14.01,2013-01-16 05:57:00,
2013-01-15 22:02:00,42.8,24.5,29.85,SSW,202,3.4,3.4,48,0.00,,CLR,0.00,VWS V14.01,2013-01-16 06:02:00,
2013-01-15 22:07:00,42.3,23.5,29.85,SSW,202,3.4,3.4,47,0.00,,CLR,0.00,VWS V14.01,2013-01-16 06:07:00,
2013-01-15 22:12:00,41.7,23.5,29.85,SSW,202,3.4,3.4,48,0.00,,CLR,0.00,VWS V14.01,2013-01-16 06:12:00,
2013-01-15 22:17:00,41.5,23.3,29.85,SSW,202,3.4,3.4,48,0.00,,CLR,0.00,VWS V14.01,2013-01-16 06:17:00,
2013-01-15 22:22:00,41.4,23.2,29.85,SSW,202,3.4,3.4,48,0.00,,CLR,0.00,VWS V14.01,2013-01-16 06:22:00,
2013-01-15 22:27:00,41.5,23.8,29.85,SSW,202,3.4,3.4,49,0.00,,CLR,0.00,VWS V14.01,2013-01-16 06:27:00,
2013-01-15 22:32:00,41.7,24.0,29.85,SSW,202,3.4,3.4,49,0.00,,CLR,0.00,VWS V14.01,2013-01-16 06:32:00,
2013-01-15 22:37:00,41.4,23.6,29.85,SSW,202,3.4,3.4,49,0.00,,CLR,0.00,VWS V14.01,2013-01-16 06:37:00,
2013-01-15 22:42:00,41.0,23.3,29.85,SSW,202,3.4,3.4,49,0.00,,CLR,0.00,VWS V14.01,2013-01-16 06:42:00,
2013-01-15 22:47:00,41.2,23.5,29.85,SSW,202,3.4,3.4,49,0.00,,CLR,0.00,VWS V14.01,2013-01-16 06:47:00,
2013-01-15 22:52:00,40.6,23.5,29.85,SSW,202,3.4,3.4,50,0.00,,CLR,0.00,VWS V14.01,2013-01-16 06:52:00,
2013-01-15 22:58:00,41.0,23.3,29.85,SSW,202,3.4,3.4,49,0.00,,CLR,0.00,VWS V14.01,2013-01-16 06:58:00,
2013-01-15 23:03:00,41.0,23.8,29.85,SSW,202,3.4,3.4,50,0.00,,CLR,0.00,VWS V14.01,2013-01-16 07:03:00,
2013-01-15 23:08:00,40.8,24.1,29.85,SSW,202,3.4,3.4,51,0.00,,CLR,0.00,VWS V14.01,2013-01-16 07:08:00,
2013-01-15 23:13:00,41.0,23.8,29.85,SSW,202,3.4,3.4,50,0.00,,CLR,0.00,VWS V14.01,2013-01-16 07:13:00,
2013-01-15 23:18:00,41.2,24.0,29.85,SSW,202,3.4,3.4,50,0.00,,CLR,0.00,VWS V14.01,2013-01-16 07:18:00,
2013-01-15 23:23:00,41.5,24.3,29.85,SSW,202,3.4,3.4,50,0.00,,CLR,0.00,VWS V14.01,2013-01-16 07:23:00,
2013-01-15 23:28:00,41.7,24.5,29.85,SSW,202,3.4,3.4,50,0.00,,CLR,0.00,VWS V14.01,2013-01-16 07:28:00,
2013-01-15 23:33:00,42.4,25.1,29.85,SSW,202,3.4,3.4,50,0.00,,CLR,0.00,VWS V14.01,2013-01-16 07:33:00,
2013-01-15 23:38:00,42.4,25.1,29.85,SSW,202,3.4,3.4,50,0.00,,CLR,0.00,VWS V14.01,2013-01-16 07:38:00,
2013-01-15 23:43:00,42.8,25.0,29.85,SSW,202,3.4,3.4,49,0.00,,CLR,0.00,VWS V14.01,2013-01-16 07:43:00,
2013-01-15 23:48:00,42.8,25.0,29.85,SSW,202,3.4,3.4,49,0.00,,CLR,0.00,VWS V14.01,2013-01-16 07:48:00,
2013-01-15 23:53:00,42.3,24.5,29.85,SSW,202,3.4,3.4,49,0.00,,CLR,0.00,VWS V14.01,2013-01-16 07:53:00,
2013-01-15 23:58:00,41.7,24.0,29.85,SSW,202,3.4,3.4,49,0.00,,CLR,0.00,VWS V14.01,2013-01-16 07:58:00,